sensor_id;sensor_type;location;lat;lon;timestamp;P1;durP1;ratioP1;P2;durP2;ratioP2
3943;SDS011;1986;52.546;13.428;2023-07-09T00:01:44;29.30;;;27.30;;
3943;SDS011;1986;52.546;13.428;2023-07-09T00:04:12;29.40;;;27.40;;
3943;SDS011;1986;52.546;13.428;2023-07-09T00:06:42;30.10;;;28.10;;
3943;SDS011;1986;52.546;13.428;2023-07-09T00:09:11;29.93;;;27.93;;
3943;SDS011;1986;52.546;13.428;2023-07-09T00:11:49;30.00;;;28.00;;
3943;SDS011;1986;52.546;13.428;2023-07-09T00:14:17;29.23;;;27.23;;
3943;SDS011;1986;52.546;13.428;2023-07-09T00:16:45;28.93;;;27.03;;
3943;SDS011;1986;52.546;13.428;2023-07-09T00:19:14;29.10;;;27.13;;
3943;SDS011;1986;52.546;13.428;2023-07-09T00:21:50;29.80;;;27.80;;
3943;SDS011;1986;52.546;13.428;2023-07-09T00:24:18;28.80;;;26.80;;
3943;SDS011;1986;52.546;13.428;2023-07-09T00:26:45;29.80;;;27.80;;
3943;SDS011;1986;52.546;13.428;2023-07-09T00:29:13;28.40;;;26.50;;
3943;SDS011;1986;52.546;13.428;2023-07-09T00:31:41;29.20;;;27.30;;
3943;SDS011;1986;52.546;13.428;2023-07-09T00:34:09;28.80;;;26.70;;
3943;SDS011;1986;52.546;13.428;2023-07-09T00:36:38;28.53;;;26.63;;
3943;SDS011;1986;52.546;13.428;2023-07-09T00:39:08;29.60;;;27.60;;
3943;SDS011;1986;52.546;13.428;2023-07-09T00:41:42;29.37;;;27.37;;
3943;SDS011;1986;52.546;13.428;2023-07-09T00:44:20;30.10;;;28.10;;
3943;SDS011;1986;52.546;13.428;2023-07-09T00:47:20;29.90;;;27.90;;
3943;SDS011;1986;52.546;13.428;2023-07-09T00:49:51;30.27;;;28.27;;
3943;SDS011;1986;52.546;13.428;2023-07-09T00:52:27;30.13;;;28.13;;
3943;SDS011;1986;52.546;13.428;2023-07-09T00:55:01;30.60;;;28.60;;
3943;SDS011;1986;52.546;13.428;2023-07-09T00:57:33;31.17;;;29.17;;
3943;SDS011;1986;52.546;13.428;2023-07-09T01:00:04;31.90;;;29.80;;
3943;SDS011;1986;52.546;13.428;2023-07-09T01:02:47;31.57;;;29.50;;
3943;SDS011;1986;52.546;13.428;2023-07-09T01:05:17;31.83;;;29.73;;
3943;SDS011;1986;52.546;13.428;2023-07-09T01:07:45;30.17;;;28.17;;
3943;SDS011;1986;52.546;13.428;2023-07-09T01:10:13;30.73;;;28.73;;
3943;SDS011;1986;52.546;13.428;2023-07-09T01:12:42;30.70;;;28.70;;
3943;SDS011;1986;52.546;13.428;2023-07-09T01:15:10;29.50;;;27.60;;
3943;SDS011;1986;52.546;13.428;2023-07-09T01:17:40;31.70;;;29.60;;
3943;SDS011;1986;52.546;13.428;2023-07-09T01:20:13;29.80;;;27.80;;
3943;SDS011;1986;52.546;13.428;2023-07-09T01:25:32;31.00;;;28.90;;
3943;SDS011;1986;52.546;13.428;2023-07-09T01:28:00;28.87;;;26.87;;
3943;SDS011;1986;52.546;13.428;2023-07-09T01:30:29;27.93;;;26.03;;
3943;SDS011;1986;52.546;13.428;2023-07-09T01:32:59;29.00;;;27.10;;
3943;SDS011;1986;52.546;13.428;2023-07-09T01:35:27;29.77;;;27.77;;
3943;SDS011;1986;52.546;13.428;2023-07-09T01:37:56;29.10;;;27.10;;
3943;SDS011;1986;52.546;13.428;2023-07-09T01:40:27;28.07;;;26.17;;
3943;SDS011;1986;52.546;13.428;2023-07-09T01:42:55;28.00;;;26.10;;
3943;SDS011;1986;52.546;13.428;2023-07-09T01:45:24;28.40;;;26.50;;
3943;SDS011;1986;52.546;13.428;2023-07-09T01:47:52;28.67;;;26.77;;
3943;SDS011;1986;52.546;13.428;2023-07-09T01:50:21;28.23;;;26.33;;
3943;SDS011;1986;52.546;13.428;2023-07-09T01:52:49;28.50;;;26.60;;
3943;SDS011;1986;52.546;13.428;2023-07-09T01:55:16;28.93;;;27.03;;
3943;SDS011;1986;52.546;13.428;2023-07-09T01:57:45;28.73;;;26.83;;
3943;SDS011;1986;52.546;13.428;2023-07-09T02:00:15;28.47;;;26.57;;
3943;SDS011;1986;52.546;13.428;2023-07-09T02:02:45;30.00;;;28.00;;
3943;SDS011;1986;52.546;13.428;2023-07-09T02:05:16;28.37;;;26.27;;
3943;SDS011;1986;52.546;13.428;2023-07-09T02:07:44;27.50;;;25.60;;
3943;SDS011;1986;52.546;13.428;2023-07-09T02:10:12;27.70;;;25.80;;
3943;SDS011;1986;52.546;13.428;2023-07-09T02:12:40;28.00;;;26.10;;
3943;SDS011;1986;52.546;13.428;2023-07-09T02:15:09;27.77;;;25.87;;
3943;SDS011;1986;52.546;13.428;2023-07-09T02:17:45;27.73;;;25.83;;
3943;SDS011;1986;52.546;13.428;2023-07-09T02:20:12;27.70;;;25.80;;
3943;SDS011;1986;52.546;13.428;2023-07-09T02:22:40;27.67;;;25.80;;
3943;SDS011;1986;52.546;13.428;2023-07-09T02:25:08;27.50;;;25.60;;
3943;SDS011;1986;52.546;13.428;2023-07-09T02:27:37;26.80;;;25.00;;
3943;SDS011;1986;52.546;13.428;2023-07-09T02:30:08;26.90;;;25.00;;
3943;SDS011;1986;52.546;13.428;2023-07-09T02:32:51;26.63;;;24.83;;
3943;SDS011;1986;52.546;13.428;2023-07-09T02:35:19;26.90;;;25.10;;
3943;SDS011;1986;52.546;13.428;2023-07-09T02:37:47;27.20;;;25.30;;
3943;SDS011;1986;52.546;13.428;2023-07-09T02:40:14;27.13;;;25.33;;
3943;SDS011;1986;52.546;13.428;2023-07-09T02:42:42;27.30;;;25.50;;
3943;SDS011;1986;52.546;13.428;2023-07-09T02:45:10;27.37;;;25.57;;
3943;SDS011;1986;52.546;13.428;2023-07-09T02:47:37;26.17;;;24.47;;
3943;SDS011;1986;52.546;13.428;2023-07-09T02:50:05;26.33;;;24.63;;
3943;SDS011;1986;52.546;13.428;2023-07-09T02:52:32;27.67;;;25.30;;
3943;SDS011;1986;52.546;13.428;2023-07-09T02:54:59;26.43;;;24.73;;
3943;SDS011;1986;52.546;13.428;2023-07-09T02:57:26;26.10;;;24.40;;
3943;SDS011;1986;52.546;13.428;2023-07-09T02:59:53;26.80;;;25.10;;
3943;SDS011;1986;52.546;13.428;2023-07-09T03:02:21;25.77;;;24.10;;
3943;SDS011;1986;52.546;13.428;2023-07-09T03:04:48;26.40;;;24.70;;
3943;SDS011;1986;52.546;13.428;2023-07-09T03:07:15;25.87;;;24.17;;
3943;SDS011;1986;52.546;13.428;2023-07-09T03:09:42;24.90;;;23.30;;
3943;SDS011;1986;52.546;13.428;2023-07-09T03:12:09;25.00;;;23.40;;
3943;SDS011;1986;52.546;13.428;2023-07-09T03:14:36;24.43;;;22.93;;
3943;SDS011;1986;52.546;13.428;2023-07-09T03:17:03;23.33;;;21.93;;
3943;SDS011;1986;52.546;13.428;2023-07-09T03:19:34;24.23;;;22.10;;
3943;SDS011;1986;52.546;13.428;2023-07-09T03:22:01;22.37;;;20.97;;
3943;SDS011;1986;52.546;13.428;2023-07-09T03:24:28;22.40;;;21.00;;
3943;SDS011;1986;52.546;13.428;2023-07-09T03:26:56;22.60;;;21.20;;
3943;SDS011;1986;52.546;13.428;2023-07-09T03:29:23;23.17;;;21.77;;
3943;SDS011;1986;52.546;13.428;2023-07-09T03:31:50;22.80;;;21.40;;
3943;SDS011;1986;52.546;13.428;2023-07-09T03:34:18;22.80;;;21.40;;
3943;SDS011;1986;52.546;13.428;2023-07-09T03:36:46;23.00;;;21.60;;
3943;SDS011;1986;52.546;13.428;2023-07-09T03:39:13;23.70;;;22.23;;
3943;SDS011;1986;52.546;13.428;2023-07-09T03:41:40;23.10;;;21.70;;
3943;SDS011;1986;52.546;13.428;2023-07-09T03:44:07;23.77;;;22.27;;
3943;SDS011;1986;52.546;13.428;2023-07-09T03:46:34;23.00;;;21.60;;
3943;SDS011;1986;52.546;13.428;2023-07-09T03:49:01;23.60;;;22.20;;
3943;SDS011;1986;52.546;13.428;2023-07-09T03:51:28;22.87;;;21.47;;
3943;SDS011;1986;52.546;13.428;2023-07-09T03:53:56;22.83;;;21.43;;
3943;SDS011;1986;52.546;13.428;2023-07-09T03:56:23;22.23;;;20.93;;
3943;SDS011;1986;52.546;13.428;2023-07-09T03:58:50;24.40;;;22.90;;
3943;SDS011;1986;52.546;13.428;2023-07-09T04:01:17;22.43;;;21.13;;
3943;SDS011;1986;52.546;13.428;2023-07-09T04:03:45;22.10;;;20.80;;
3943;SDS011;1986;52.546;13.428;2023-07-09T04:06:12;22.20;;;20.90;;
3943;SDS011;1986;52.546;13.428;2023-07-09T04:08:39;22.60;;;21.30;;
3943;SDS011;1986;52.546;13.428;2023-07-09T04:11:07;22.60;;;21.20;;
3943;SDS011;1986;52.546;13.428;2023-07-09T04:13:35;22.60;;;21.20;;
3943;SDS011;1986;52.546;13.428;2023-07-09T04:16:02;21.80;;;20.50;;
3943;SDS011;1986;52.546;13.428;2023-07-09T04:18:29;22.90;;;21.50;;
3943;SDS011;1986;52.546;13.428;2023-07-09T04:20:56;23.70;;;22.20;;
3943;SDS011;1986;52.546;13.428;2023-07-09T04:23:23;22.50;;;21.10;;
3943;SDS011;1986;52.546;13.428;2023-07-09T04:25:50;23.27;;;21.77;;
3943;SDS011;1986;52.546;13.428;2023-07-09T04:28:18;22.30;;;21.00;;
3943;SDS011;1986;52.546;13.428;2023-07-09T04:30:46;23.50;;;22.07;;
3943;SDS011;1986;52.546;13.428;2023-07-09T04:33:14;23.63;;;22.23;;
3943;SDS011;1986;52.546;13.428;2023-07-09T04:35:43;23.63;;;22.13;;
3943;SDS011;1986;52.546;13.428;2023-07-09T04:38:11;23.80;;;22.30;;
3943;SDS011;1986;52.546;13.428;2023-07-09T04:40:38;24.00;;;22.50;;
3943;SDS011;1986;52.546;13.428;2023-07-09T04:43:05;25.17;;;23.23;;
3943;SDS011;1986;52.546;13.428;2023-07-09T04:45:33;23.40;;;22.00;;
3943;SDS011;1986;52.546;13.428;2023-07-09T04:48:00;23.87;;;22.37;;
3943;SDS011;1986;52.546;13.428;2023-07-09T04:50:27;24.20;;;22.70;;
3943;SDS011;1986;52.546;13.428;2023-07-09T04:52:54;23.80;;;22.30;;
3943;SDS011;1986;52.546;13.428;2023-07-09T04:55:21;23.70;;;22.20;;
3943;SDS011;1986;52.546;13.428;2023-07-09T04:57:49;23.60;;;22.10;;
3943;SDS011;1986;52.546;13.428;2023-07-09T05:00:17;23.90;;;22.40;;
3943;SDS011;1986;52.546;13.428;2023-07-09T05:02:45;24.27;;;22.77;;
3943;SDS011;1986;52.546;13.428;2023-07-09T05:05:13;25.43;;;23.30;;
3943;SDS011;1986;52.546;13.428;2023-07-09T05:07:40;24.30;;;22.80;;
3943;SDS011;1986;52.546;13.428;2023-07-09T05:10:07;26.90;;;25.20;;
3943;SDS011;1986;52.546;13.428;2023-07-09T05:12:35;24.00;;;22.50;;
3943;SDS011;1986;52.546;13.428;2023-07-09T05:15:02;25.17;;;23.47;;
3943;SDS011;1986;52.546;13.428;2023-07-09T05:17:29;24.30;;;22.80;;
3943;SDS011;1986;52.546;13.428;2023-07-09T05:19:58;24.40;;;22.80;;
3943;SDS011;1986;52.546;13.428;2023-07-09T05:22:25;25.40;;;23.80;;
3943;SDS011;1986;52.546;13.428;2023-07-09T05:24:52;25.60;;;24.00;;
3943;SDS011;1986;52.546;13.428;2023-07-09T05:27:19;26.63;;;24.93;;
3943;SDS011;1986;52.546;13.428;2023-07-09T05:29:46;25.50;;;23.90;;
3943;SDS011;1986;52.546;13.428;2023-07-09T05:32:13;25.80;;;24.10;;
3943;SDS011;1986;52.546;13.428;2023-07-09T05:34:41;26.27;;;24.57;;
3943;SDS011;1986;52.546;13.428;2023-07-09T05:37:09;26.23;;;24.43;;
3943;SDS011;1986;52.546;13.428;2023-07-09T05:39:36;25.77;;;24.07;;
3943;SDS011;1986;52.546;13.428;2023-07-09T05:42:06;25.90;;;24.20;;
3943;SDS011;1986;52.546;13.428;2023-07-09T05:44:33;27.10;;;25.30;;
3943;SDS011;1986;52.546;13.428;2023-07-09T05:47:00;27.07;;;25.17;;
3943;SDS011;1986;52.546;13.428;2023-07-09T05:49:38;27.33;;;25.53;;
3943;SDS011;1986;52.546;13.428;2023-07-09T05:52:05;27.03;;;25.23;;
3943;SDS011;1986;52.546;13.428;2023-07-09T05:54:34;28.07;;;26.17;;
3943;SDS011;1986;52.546;13.428;2023-07-09T05:57:01;31.57;;;29.57;;
3943;SDS011;1986;52.546;13.428;2023-07-09T05:59:28;32.03;;;30.03;;
3943;SDS011;1986;52.546;13.428;2023-07-09T06:01:56;30.43;;;28.40;;
3943;SDS011;1986;52.546;13.428;2023-07-09T06:04:25;29.23;;;27.27;;
3943;SDS011;1986;52.546;13.428;2023-07-09T06:06:53;28.63;;;26.73;;
3943;SDS011;1986;52.546;13.428;2023-07-09T06:09:20;27.87;;;25.97;;
3943;SDS011;1986;52.546;13.428;2023-07-09T06:11:49;27.60;;;25.70;;
3943;SDS011;1986;52.546;13.428;2023-07-09T06:14:16;29.17;;;27.17;;
3943;SDS011;1986;52.546;13.428;2023-07-09T06:16:43;28.37;;;26.37;;
3943;SDS011;1986;52.546;13.428;2023-07-09T06:19:10;28.70;;;26.70;;
3943;SDS011;1986;52.546;13.428;2023-07-09T06:21:38;28.77;;;26.77;;
3943;SDS011;1986;52.546;13.428;2023-07-09T06:24:05;32.97;;;30.67;;
3943;SDS011;1986;52.546;13.428;2023-07-09T06:26:33;28.83;;;26.73;;
3943;SDS011;1986;52.546;13.428;2023-07-09T06:29:02;30.87;;;28.77;;
3943;SDS011;1986;52.546;13.428;2023-07-09T06:31:31;29.13;;;27.03;;
3943;SDS011;1986;52.546;13.428;2023-07-09T06:33:58;28.07;;;26.07;;
3943;SDS011;1986;52.546;13.428;2023-07-09T06:36:32;28.53;;;26.50;;
3943;SDS011;1986;52.546;13.428;2023-07-09T06:38:59;35.33;;;33.03;;
3943;SDS011;1986;52.546;13.428;2023-07-09T06:41:26;33.57;;;31.27;;
3943;SDS011;1986;52.546;13.428;2023-07-09T06:43:54;30.20;;;28.10;;
3943;SDS011;1986;52.546;13.428;2023-07-09T06:46:22;28.57;;;26.57;;
3943;SDS011;1986;52.546;13.428;2023-07-09T06:48:50;28.73;;;26.70;;
3943;SDS011;1986;52.546;13.428;2023-07-09T06:51:21;28.23;;;26.23;;
3943;SDS011;1986;52.546;13.428;2023-07-09T06:53:48;29.07;;;26.97;;
3943;SDS011;1986;52.546;13.428;2023-07-09T06:56:16;28.60;;;26.60;;
3943;SDS011;1986;52.546;13.428;2023-07-09T06:58:43;28.50;;;26.40;;
3943;SDS011;1986;52.546;13.428;2023-07-09T07:01:11;28.20;;;26.20;;
3943;SDS011;1986;52.546;13.428;2023-07-09T07:03:39;28.07;;;26.07;;
3943;SDS011;1986;52.546;13.428;2023-07-09T07:06:10;29.30;;;27.20;;
3943;SDS011;1986;52.546;13.428;2023-07-09T07:08:37;27.97;;;25.97;;
3943;SDS011;1986;52.546;13.428;2023-07-09T07:11:04;29.47;;;27.37;;
3943;SDS011;1986;52.546;13.428;2023-07-09T07:13:32;30.00;;;27.80;;
3943;SDS011;1986;52.546;13.428;2023-07-09T07:16:01;29.60;;;27.50;;
3943;SDS011;1986;52.546;13.428;2023-07-09T07:18:28;30.70;;;28.50;;
3943;SDS011;1986;52.546;13.428;2023-07-09T07:20:56;29.70;;;27.60;;
3943;SDS011;1986;52.546;13.428;2023-07-09T07:23:23;32.00;;;29.60;;
3943;SDS011;1986;52.546;13.428;2023-07-09T07:25:50;30.40;;;28.20;;
3943;SDS011;1986;52.546;13.428;2023-07-09T07:28:17;31.30;;;29.00;;
3943;SDS011;1986;52.546;13.428;2023-07-09T07:30:45;30.10;;;27.90;;
3943;SDS011;1986;52.546;13.428;2023-07-09T07:33:12;29.50;;;27.40;;
3943;SDS011;1986;52.546;13.428;2023-07-09T07:35:40;28.83;;;26.73;;
3943;SDS011;1986;52.546;13.428;2023-07-09T07:38:08;28.67;;;26.57;;
3943;SDS011;1986;52.546;13.428;2023-07-09T07:40:35;30.93;;;28.57;;
3943;SDS011;1986;52.546;13.428;2023-07-09T07:43:02;29.20;;;27.00;;
3943;SDS011;1986;52.546;13.428;2023-07-09T07:45:31;29.40;;;27.10;;
3943;SDS011;1986;52.546;13.428;2023-07-09T07:47:58;29.63;;;27.43;;
3943;SDS011;1986;52.546;13.428;2023-07-09T07:50:25;28.40;;;26.30;;
3943;SDS011;1986;52.546;13.428;2023-07-09T07:52:52;28.03;;;26.03;;
3943;SDS011;1986;52.546;13.428;2023-07-09T07:55:22;28.40;;;26.40;;
3943;SDS011;1986;52.546;13.428;2023-07-09T07:57:49;30.20;;;27.90;;
3943;SDS011;1986;52.546;13.428;2023-07-09T08:00:16;29.30;;;27.20;;
3943;SDS011;1986;52.546;13.428;2023-07-09T08:02:44;29.77;;;27.67;;
3943;SDS011;1986;52.546;13.428;2023-07-09T08:05:11;29.43;;;27.33;;
3943;SDS011;1986;52.546;13.428;2023-07-09T08:07:38;30.70;;;28.50;;
3943;SDS011;1986;52.546;13.428;2023-07-09T08:10:05;29.97;;;27.77;;
3943;SDS011;1986;52.546;13.428;2023-07-09T08:12:34;29.10;;;27.00;;
3943;SDS011;1986;52.546;13.428;2023-07-09T08:15:01;30.17;;;27.97;;
3943;SDS011;1986;52.546;13.428;2023-07-09T08:17:28;31.87;;;29.77;;
3943;SDS011;1986;52.546;13.428;2023-07-09T08:19:55;30.83;;;28.73;;
3943;SDS011;1986;52.546;13.428;2023-07-09T08:22:23;31.77;;;29.57;;
3943;SDS011;1986;52.546;13.428;2023-07-09T08:24:50;31.57;;;29.37;;
3943;SDS011;1986;52.546;13.428;2023-07-09T08:27:18;30.80;;;28.70;;
3943;SDS011;1986;52.546;13.428;2023-07-09T08:29:46;32.37;;;30.17;;
3943;SDS011;1986;52.546;13.428;2023-07-09T08:32:14;32.70;;;30.50;;
3943;SDS011;1986;52.546;13.428;2023-07-09T08:34:43;33.27;;;31.07;;
3943;SDS011;1986;52.546;13.428;2023-07-09T08:37:10;33.80;;;31.60;;
3943;SDS011;1986;52.546;13.428;2023-07-09T08:39:37;33.73;;;31.53;;
3943;SDS011;1986;52.546;13.428;2023-07-09T08:42:05;33.70;;;31.50;;
3943;SDS011;1986;52.546;13.428;2023-07-09T08:47:43;29.00;;;26.90;;
3943;SDS011;1986;52.546;13.428;2023-07-09T08:50:18;29.37;;;27.27;;
3943;SDS011;1986;52.546;13.428;2023-07-09T08:52:48;29.67;;;27.47;;
3943;SDS011;1986;52.546;13.428;2023-07-09T08:55:17;30.00;;;27.80;;
3943;SDS011;1986;52.546;13.428;2023-07-09T08:57:46;31.10;;;28.90;;
3943;SDS011;1986;52.546;13.428;2023-07-09T09:00:17;30.30;;;28.10;;
3943;SDS011;1986;52.546;13.428;2023-07-09T09:02:49;31.70;;;29.43;;
3943;SDS011;1986;52.546;13.428;2023-07-09T09:05:21;31.60;;;29.40;;
3943;SDS011;1986;52.546;13.428;2023-07-09T09:07:51;29.90;;;27.80;;
3943;SDS011;1986;52.546;13.428;2023-07-09T09:10:22;31.07;;;28.87;;
3943;SDS011;1986;52.546;13.428;2023-07-09T09:13:05;30.60;;;28.40;;
3943;SDS011;1986;52.546;13.428;2023-07-09T09:15:41;31.20;;;28.90;;
3943;SDS011;1986;52.546;13.428;2023-07-09T09:18:20;29.70;;;27.60;;
3943;SDS011;1986;52.546;13.428;2023-07-09T09:20:52;30.63;;;28.43;;
3943;SDS011;1986;52.546;13.428;2023-07-09T09:23:25;32.07;;;29.77;;
3943;SDS011;1986;52.546;13.428;2023-07-09T09:26:02;31.17;;;28.90;;
3943;SDS011;1986;52.546;13.428;2023-07-09T09:28:41;30.27;;;28.07;;
3943;SDS011;1986;52.546;13.428;2023-07-09T09:31:11;30.70;;;28.50;;
3943;SDS011;1986;52.546;13.428;2023-07-09T09:33:43;38.80;;;36.30;;
3943;SDS011;1986;52.546;13.428;2023-07-09T09:36:15;37.43;;;35.03;;
3943;SDS011;1986;52.546;13.428;2023-07-09T09:38:43;40.17;;;37.37;;
3943;SDS011;1986;52.546;13.428;2023-07-09T09:41:14;38.10;;;35.60;;
3943;SDS011;1986;52.546;13.428;2023-07-09T09:43:43;39.67;;;36.33;;
3943;SDS011;1986;52.546;13.428;2023-07-09T09:46:18;40.70;;;37.93;;
3943;SDS011;1986;52.546;13.428;2023-07-09T09:48:47;37.80;;;35.30;;
3943;SDS011;1986;52.546;13.428;2023-07-09T09:51:16;37.60;;;35.20;;
3943;SDS011;1986;52.546;13.428;2023-07-09T09:53:46;34.17;;;31.87;;
3943;SDS011;1986;52.546;13.428;2023-07-09T09:56:20;35.20;;;32.90;;
3943;SDS011;1986;52.546;13.428;2023-07-09T09:58:53;34.87;;;32.57;;
3943;SDS011;1986;52.546;13.428;2023-07-09T10:01:26;36.70;;;34.20;;
3943;SDS011;1986;52.546;13.428;2023-07-09T10:03:56;32.30;;;30.00;;
3943;SDS011;1986;52.546;13.428;2023-07-09T10:06:35;32.20;;;29.90;;
3943;SDS011;1986;52.546;13.428;2023-07-09T10:09:05;31.27;;;29.07;;
3943;SDS011;1986;52.546;13.428;2023-07-09T10:11:44;32.07;;;29.77;;
3943;SDS011;1986;52.546;13.428;2023-07-09T10:14:17;31.67;;;29.37;;
3943;SDS011;1986;52.546;13.428;2023-07-09T10:17:17;32.27;;;29.87;;
3943;SDS011;1986;52.546;13.428;2023-07-09T10:19:49;31.30;;;28.97;;
3943;SDS011;1986;52.546;13.428;2023-07-09T10:22:24;31.80;;;29.43;;
3943;SDS011;1986;52.546;13.428;2023-07-09T10:25:14;32.30;;;29.90;;
3943;SDS011;1986;52.546;13.428;2023-07-09T10:27:50;30.83;;;28.33;;
3943;SDS011;1986;52.546;13.428;2023-07-09T10:30:33;31.10;;;28.80;;
3943;SDS011;1986;52.546;13.428;2023-07-09T10:33:13;31.67;;;29.37;;
3943;SDS011;1986;52.546;13.428;2023-07-09T10:35:49;31.80;;;29.40;;
3943;SDS011;1986;52.546;13.428;2023-07-09T10:38:28;33.07;;;30.67;;
3943;SDS011;1986;52.546;13.428;2023-07-09T10:41:04;31.87;;;29.57;;
3943;SDS011;1986;52.546;13.428;2023-07-09T10:43:37;31.93;;;29.70;;
3943;SDS011;1986;52.546;13.428;2023-07-09T10:46:12;32.60;;;30.30;;
3943;SDS011;1986;52.546;13.428;2023-07-09T10:48:43;32.70;;;30.30;;
3943;SDS011;1986;52.546;13.428;2023-07-09T10:51:15;36.10;;;33.60;;
3943;SDS011;1986;52.546;13.428;2023-07-09T10:53:48;36.30;;;33.53;;
3943;SDS011;1986;52.546;13.428;2023-07-09T10:56:19;34.57;;;32.17;;
3943;SDS011;1986;52.546;13.428;2023-07-09T10:58:50;37.07;;;34.57;;
3943;SDS011;1986;52.546;13.428;2023-07-09T11:01:25;32.67;;;30.37;;
3943;SDS011;1986;52.546;13.428;2023-07-09T11:03:59;35.67;;;33.27;;
3943;SDS011;1986;52.546;13.428;2023-07-09T11:06:31;35.37;;;32.97;;
3943;SDS011;1986;52.546;13.428;2023-07-09T11:09:03;36.00;;;33.60;;
3943;SDS011;1986;52.546;13.428;2023-07-09T11:11:35;36.20;;;33.80;;
3943;SDS011;1986;52.546;13.428;2023-07-09T11:14:08;35.73;;;33.33;;
3943;SDS011;1986;52.546;13.428;2023-07-09T11:16:43;36.47;;;34.07;;
3943;SDS011;1986;52.546;13.428;2023-07-09T11:19:13;35.93;;;33.43;;
3943;SDS011;1986;52.546;13.428;2023-07-09T11:21:44;35.33;;;32.73;;
3943;SDS011;1986;52.546;13.428;2023-07-09T11:24:27;32.13;;;29.83;;
3943;SDS011;1986;52.546;13.428;2023-07-09T11:26:57;30.70;;;28.40;;
3943;SDS011;1986;52.546;13.428;2023-07-09T11:29:26;32.33;;;29.93;;
3943;SDS011;1986;52.546;13.428;2023-07-09T11:31:54;31.20;;;28.90;;
3943;SDS011;1986;52.546;13.428;2023-07-09T11:34:28;31.80;;;29.30;;
3943;SDS011;1986;52.546;13.428;2023-07-09T11:36:57;31.37;;;28.97;;
3943;SDS011;1986;52.546;13.428;2023-07-09T11:39:27;30.57;;;28.17;;
3943;SDS011;1986;52.546;13.428;2023-07-09T11:41:55;32.20;;;29.60;;
3943;SDS011;1986;52.546;13.428;2023-07-09T11:44:24;31.03;;;28.73;;
3943;SDS011;1986;52.546;13.428;2023-07-09T11:47:01;34.40;;;31.53;;
3943;SDS011;1986;52.546;13.428;2023-07-09T11:49:46;31.77;;;29.27;;
3943;SDS011;1986;52.546;13.428;2023-07-09T11:52:19;31.70;;;29.40;;
3943;SDS011;1986;52.546;13.428;2023-07-09T11:54:51;31.13;;;28.73;;
3943;SDS011;1986;52.546;13.428;2023-07-09T11:57:19;29.80;;;27.50;;
3943;SDS011;1986;52.546;13.428;2023-07-09T11:59:46;29.90;;;27.60;;
3943;SDS011;1986;52.546;13.428;2023-07-09T12:02:16;35.20;;;32.70;;
3943;SDS011;1986;52.546;13.428;2023-07-09T12:04:49;35.00;;;32.50;;
3943;SDS011;1986;52.546;13.428;2023-07-09T12:07:25;34.30;;;31.87;;
3943;SDS011;1986;52.546;13.428;2023-07-09T12:09:52;34.50;;;32.00;;
3943;SDS011;1986;52.546;13.428;2023-07-09T12:12:21;34.50;;;32.10;;
3943;SDS011;1986;52.546;13.428;2023-07-09T12:14:50;33.70;;;31.20;;
3943;SDS011;1986;52.546;13.428;2023-07-09T12:17:17;35.37;;;32.87;;
3943;SDS011;1986;52.546;13.428;2023-07-09T12:19:44;36.03;;;33.50;;
3943;SDS011;1986;52.546;13.428;2023-07-09T12:22:17;37.40;;;34.90;;
3943;SDS011;1986;52.546;13.428;2023-07-09T12:24:47;39.30;;;36.70;;
3943;SDS011;1986;52.546;13.428;2023-07-09T12:27:19;38.23;;;35.73;;
3943;SDS011;1986;52.546;13.428;2023-07-09T12:29:48;38.43;;;35.77;;
3943;SDS011;1986;52.546;13.428;2023-07-09T12:32:17;38.00;;;35.43;;
3943;SDS011;1986;52.546;13.428;2023-07-09T12:34:50;36.70;;;34.20;;
3943;SDS011;1986;52.546;13.428;2023-07-09T12:37:19;36.37;;;33.87;;
3943;SDS011;1986;52.546;13.428;2023-07-09T12:39:49;36.93;;;34.43;;
3943;SDS011;1986;52.546;13.428;2023-07-09T12:42:19;36.33;;;33.83;;
3943;SDS011;1986;52.546;13.428;2023-07-09T12:44:49;30.23;;;27.93;;
3943;SDS011;1986;52.546;13.428;2023-07-09T12:47:16;30.13;;;27.83;;
3943;SDS011;1986;52.546;13.428;2023-07-09T12:49:46;30.73;;;28.53;;
3943;SDS011;1986;52.546;13.428;2023-07-09T12:52:17;32.43;;;30.03;;
3943;SDS011;1986;52.546;13.428;2023-07-09T12:54:56;32.47;;;30.17;;
3943;SDS011;1986;52.546;13.428;2023-07-09T12:57:25;31.57;;;29.37;;
3943;SDS011;1986;52.546;13.428;2023-07-09T12:59:53;31.67;;;29.37;;
3943;SDS011;1986;52.546;13.428;2023-07-09T13:02:22;31.10;;;28.73;;
3943;SDS011;1986;52.546;13.428;2023-07-09T13:04:57;29.67;;;27.47;;
3943;SDS011;1986;52.546;13.428;2023-07-09T13:07:29;29.87;;;27.77;;
3943;SDS011;1986;52.546;13.428;2023-07-09T13:10:04;30.63;;;28.43;;
3943;SDS011;1986;52.546;13.428;2023-07-09T13:12:34;31.50;;;29.30;;
3943;SDS011;1986;52.546;13.428;2023-07-09T13:15:05;37.73;;;35.17;;
3943;SDS011;1986;52.546;13.428;2023-07-09T13:17:32;37.50;;;35.00;;
3943;SDS011;1986;52.546;13.428;2023-07-09T13:20:00;37.03;;;34.53;;
3943;SDS011;1986;52.546;13.428;2023-07-09T13:22:28;38.00;;;35.40;;
3943;SDS011;1986;52.546;13.428;2023-07-09T13:24:55;38.00;;;35.53;;
3943;SDS011;1986;52.546;13.428;2023-07-09T13:27:22;36.53;;;34.20;;
3943;SDS011;1986;52.546;13.428;2023-07-09T13:29:50;37.60;;;35.10;;
3943;SDS011;1986;52.546;13.428;2023-07-09T13:32:17;37.67;;;35.17;;
3943;SDS011;1986;52.546;13.428;2023-07-09T13:34:44;35.83;;;33.33;;
3943;SDS011;1986;52.546;13.428;2023-07-09T13:37:12;34.90;;;32.50;;
3943;SDS011;1986;52.546;13.428;2023-07-09T13:39:42;34.43;;;32.03;;
3943;SDS011;1986;52.546;13.428;2023-07-09T13:42:11;34.13;;;31.73;;
3943;SDS011;1986;52.546;13.428;2023-07-09T13:44:40;35.23;;;32.83;;
3943;SDS011;1986;52.546;13.428;2023-07-09T13:47:10;36.30;;;33.80;;
3943;SDS011;1986;52.546;13.428;2023-07-09T13:49:40;37.73;;;35.33;;
3943;SDS011;1986;52.546;13.428;2023-07-09T13:52:08;36.50;;;34.20;;
3943;SDS011;1986;52.546;13.428;2023-07-09T13:54:40;40.27;;;37.67;;
3943;SDS011;1986;52.546;13.428;2023-07-09T13:57:11;39.10;;;36.50;;
3943;SDS011;1986;52.546;13.428;2023-07-09T13:59:40;36.90;;;34.40;;
3943;SDS011;1986;52.546;13.428;2023-07-09T14:02:16;36.73;;;34.43;;
3943;SDS011;1986;52.546;13.428;2023-07-09T14:04:46;37.10;;;34.70;;
3943;SDS011;1986;52.546;13.428;2023-07-09T14:07:19;34.63;;;32.33;;
3943;SDS011;1986;52.546;13.428;2023-07-09T14:09:54;32.40;;;30.20;;
3943;SDS011;1986;52.546;13.428;2023-07-09T14:12:23;31.50;;;29.40;;
3943;SDS011;1986;52.546;13.428;2023-07-09T14:14:51;31.87;;;29.77;;
3943;SDS011;1986;52.546;13.428;2023-07-09T14:17:19;32.70;;;30.50;;
3943;SDS011;1986;52.546;13.428;2023-07-09T14:19:47;32.00;;;29.70;;
3943;SDS011;1986;52.546;13.428;2023-07-09T14:22:31;32.20;;;30.00;;
3943;SDS011;1986;52.546;13.428;2023-07-09T14:25:04;30.80;;;28.70;;
3943;SDS011;1986;52.546;13.428;2023-07-09T14:30:28;30.13;;;27.93;;
3943;SDS011;1986;52.546;13.428;2023-07-09T14:32:55;30.20;;;28.10;;
3943;SDS011;1986;52.546;13.428;2023-07-09T14:35:23;31.37;;;28.97;;
3943;SDS011;1986;52.546;13.428;2023-07-09T14:37:51;30.50;;;28.30;;
3943;SDS011;1986;52.546;13.428;2023-07-09T14:40:20;30.87;;;28.67;;
3943;SDS011;1986;52.546;13.428;2023-07-09T14:42:48;35.70;;;33.30;;
3943;SDS011;1986;52.546;13.428;2023-07-09T14:45:17;34.70;;;32.40;;
3943;SDS011;1986;52.546;13.428;2023-07-09T14:47:48;34.00;;;31.80;;
3943;SDS011;1986;52.546;13.428;2023-07-09T14:50:36;31.87;;;29.77;;
3943;SDS011;1986;52.546;13.428;2023-07-09T14:53:05;32.90;;;30.70;;
3943;SDS011;1986;52.546;13.428;2023-07-09T14:55:37;34.10;;;31.90;;
3943;SDS011;1986;52.546;13.428;2023-07-09T14:58:07;34.20;;;31.90;;